sensor_id;sensor_type;location;lat;lon;timestamp;pressure;altitude;pressure_sealevel;temperature;humidity
33697;BME280;20031;43.416;23.232;2023-04-10T00:01:38;100379.91;;;7.75;95.97
33697;BME280;20031;43.416;23.232;2023-04-10T00:04:04;100380.03;;;7.74;95.88
33697;BME280;20031;43.416;23.232;2023-04-10T00:06:30;100381.81;;;7.73;95.59
33697;BME280;20031;43.416;23.232;2023-04-10T00:08:59;100377.56;;;7.72;95.69
33697;BME280;20031;43.416;23.232;2023-04-10T00:11:25;100372.78;;;7.68;95.35
33697;BME280;20031;43.416;23.232;2023-04-10T00:13:52;100371.16;;;7.67;95.83
33697;BME280;20031;43.416;23.232;2023-04-10T00:16:17;100362.69;;;7.65;95.52
33697;BME280;20031;43.416;23.232;2023-04-10T00:18:43;100367.03;;;7.64;95.42
33697;BME280;20031;43.416;23.232;2023-04-10T00:21:08;100367.03;;;7.64;95.99
33697;BME280;20031;43.416;23.232;2023-04-10T00:23:33;100361.03;;;7.64;95.52
33697;BME280;20031;43.416;23.232;2023-04-10T00:26:00;100367.03;;;7.64;95.84
33697;BME280;20031;43.416;23.232;2023-04-10T00:28:26;100363.78;;;7.62;95.55
33697;BME280;20031;43.416;23.232;2023-04-10T00:30:51;100363.78;;;7.62;95.71
33697;BME280;20031;43.416;23.232;2023-04-10T00:33:17;100362.13;;;7.61;95.76
33697;BME280;20031;43.416;23.232;2023-04-10T00:35:42;100357.22;;;7.59;95.79
33697;BME280;20031;43.416;23.232;2023-04-10T00:38:08;100358.84;;;7.60;96.05
33697;BME280;20031;43.416;23.232;2023-04-10T00:40:33;100352.72;;;7.61;95.73
33697;BME280;20031;43.416;23.232;2023-04-10T00:42:59;100358.59;;;7.62;95.95
33697;BME280;20031;43.416;23.232;2023-04-10T00:45:25;100355.06;;;7.63;95.73
33697;BME280;20031;43.416;23.232;2023-04-10T00:47:51;100346.56;;;7.61;96.16
33697;BME280;20031;43.416;23.232;2023-04-10T00:50:16;100347.28;;;7.63;96.05
33697;BME280;20031;43.416;23.232;2023-04-10T00:52:42;100346.31;;;7.64;96.36
33697;BME280;20031;43.416;23.232;2023-04-10T00:55:08;100345.38;;;7.65;95.95
33697;BME280;20031;43.416;23.232;2023-04-10T00:57:34;100349.72;;;7.65;96.12
33697;BME280;20031;43.416;23.232;2023-04-10T01:00:00;100345.38;;;7.65;95.75
33697;BME280;20031;43.416;23.232;2023-04-10T01:02:25;100343.44;;;7.67;96.36
33697;BME280;20031;43.416;23.232;2023-04-10T01:04:51;100339.22;;;7.66;96.07
33697;BME280;20031;43.416;23.232;2023-04-10T01:10:06;100333.78;;;7.69;95.88
33697;BME280;20031;43.416;23.232;2023-04-10T01:15:22;100347.56;;;7.70;96.13
33697;BME280;20031;43.416;23.232;2023-04-10T01:20:37;100347.69;;;7.68;95.97
33697;BME280;20031;43.416;23.232;2023-04-10T01:25:59;100341.00;;;7.66;96.01
33697;BME280;20031;43.416;23.232;2023-04-10T01:28:58;100329.94;;;7.64;95.64
33697;BME280;20031;43.416;23.232;2023-04-10T01:31:38;100341.13;;;7.64;96.17
33697;BME280;20031;43.416;23.232;2023-04-10T01:34:18;100341.97;;;7.65;96.32
33697;BME280;20031;43.416;23.232;2023-04-10T01:37:04;100338.41;;;7.66;95.85
33697;BME280;20031;43.416;23.232;2023-04-10T01:39:35;100341.13;;;7.64;96.07
33697;BME280;20031;43.416;23.232;2023-04-10T01:42:04;100343.56;;;7.66;95.96
33697;BME280;20031;43.416;23.232;2023-04-10T01:44:31;100344.41;;;7.66;96.15
33697;BME280;20031;43.416;23.232;2023-04-10T01:46:58;100342.50;;;7.68;95.96
33697;BME280;20031;43.416;23.232;2023-04-10T01:49:27;100344.16;;;7.69;96.32
33697;BME280;20031;43.416;23.232;2023-04-10T01:51:54;100337.88;;;7.72;96.15
33697;BME280;20031;43.416;23.232;2023-04-10T01:54:25;100335.41;;;7.70;96.12
33697;BME280;20031;43.416;23.232;2023-04-10T01:56:51;100335.53;;;7.69;96.15
33697;BME280;20031;43.416;23.232;2023-04-10T01:59:17;100330.34;;;7.69;96.08
33697;BME280;20031;43.416;23.232;2023-04-10T02:01:43;100339.09;;;7.68;96.30
33697;BME280;20031;43.416;23.232;2023-04-10T02:04:08;100334.06;;;7.66;96.03
33697;BME280;20031;43.416;23.232;2023-04-10T02:06:46;100329.00;;;7.65;96.10
33697;BME280;20031;43.416;23.232;2023-04-10T02:09:34;100326.28;;;7.66;95.95
33697;BME280;20031;43.416;23.232;2023-04-10T02:12:06;100318.63;;;7.65;95.88
33697;BME280;20031;43.416;23.232;2023-04-10T02:14:37;100315.91;;;7.66;95.88
33697;BME280;20031;43.416;23.232;2023-04-10T02:17:07;100317.66;;;7.66;95.76
33697;BME280;20031;43.416;23.232;2023-04-10T02:19:34;100322.56;;;7.69;95.95
33697;BME280;20031;43.416;23.232;2023-04-10T02:22:00;100323.41;;;7.69;96.29
33697;BME280;20031;43.416;23.232;2023-04-10T02:24:25;100319.84;;;7.70;96.50
33697;BME280;20031;43.416;23.232;2023-04-10T02:26:52;100314.00;;;7.68;96.14
33697;BME280;20031;43.416;23.232;2023-04-10T02:29:18;100308.81;;;7.68;96.04
33697;BME280;20031;43.416;23.232;2023-04-10T02:31:44;100314.00;;;7.68;95.88
33697;BME280;20031;43.416;23.232;2023-04-10T02:34:10;100311.41;;;7.68;95.86
33697;BME280;20031;43.416;23.232;2023-04-10T02:36:39;100316.72;;;7.67;95.90
33697;BME280;20031;43.416;23.232;2023-04-10T02:39:06;100309.06;;;7.65;95.49
33697;BME280;20031;43.416;23.232;2023-04-10T02:41:32;100297.91;;;7.65;95.80
33697;BME280;20031;43.416;23.232;2023-04-10T02:43:57;100308.41;;;7.63;95.88
33697;BME280;20031;43.416;23.232;2023-04-10T02:46:23;100303.22;;;7.63;96.06
33697;BME280;20031;43.416;23.232;2023-04-10T02:48:48;100299.13;;;7.61;95.95
33697;BME280;20031;43.416;23.232;2023-04-10T02:51:14;100306.09;;;7.61;96.18
33697;BME280;20031;43.416;23.232;2023-04-10T02:53:39;100299.13;;;7.61;95.61
33697;BME280;20031;43.416;23.232;2023-04-10T02:56:05;100303.50;;;7.61;95.68
33697;BME280;20031;43.416;23.232;2023-04-10T02:58:32;100307.03;;;7.60;95.73
33697;BME280;20031;43.416;23.232;2023-04-10T03:00:58;100306.19;;;7.59;96.16
33697;BME280;20031;43.416;23.232;2023-04-10T03:03:23;100302.13;;;7.57;95.91
33697;BME280;20031;43.416;23.232;2023-04-10T03:05:49;100307.28;;;7.57;96.27
33697;BME280;20031;43.416;23.232;2023-04-10T03:08:17;100304.13;;;7.53;95.72
33697;BME280;20031;43.416;23.232;2023-04-10T03:10:44;100306.19;;;7.50;95.74
33697;BME280;20031;43.416;23.232;2023-04-10T03:13:10;100307.25;;;7.47;95.58
33697;BME280;20031;43.416;23.232;2023-04-10T03:15:36;100313.38;;;7.46;95.86
33697;BME280;20031;43.416;23.232;2023-04-10T03:18:03;100313.53;;;7.45;95.99
33697;BME280;20031;43.416;23.232;2023-04-10T03:20:28;100307.81;;;7.41;95.64
33697;BME280;20031;43.416;23.232;2023-04-10T03:22:53;100321.97;;;7.37;95.48
33697;BME280;20031;43.416;23.232;2023-04-10T03:25:19;100321.41;;;7.34;95.72
33697;BME280;20031;43.416;23.232;2023-04-10T03:27:45;100320.16;;;7.28;96.02
33697;BME280;20031;43.416;23.232;2023-04-10T03:30:11;100317.00;;;7.25;95.51
33697;BME280;20031;43.416;23.232;2023-04-10T03:32:36;100319.72;;;7.23;95.69
33697;BME280;20031;43.416;23.232;2023-04-10T03:35:03;100317.53;;;7.19;95.82
33697;BME280;20031;43.416;23.232;2023-04-10T03:37:28;100310.16;;;7.14;95.50
33697;BME280;20031;43.416;23.232;2023-04-10T03:39:54;100313.16;;;7.10;95.39
33697;BME280;20031;43.416;23.232;2023-04-10T03:42:20;100315.75;;;7.10;95.86
33697;BME280;20031;43.416;23.232;2023-04-10T03:44:45;100317.75;;;7.07;95.53
33697;BME280;20031;43.416;23.232;2023-04-10T03:47:11;100318.16;;;7.02;95.80
33697;BME280;20031;43.416;23.232;2023-04-10T03:49:36;100326.16;;;6.99;95.67
33697;BME280;20031;43.416;23.232;2023-04-10T03:52:01;100323.28;;;6.93;95.56
33697;BME280;20031;43.416;23.232;2023-04-10T03:54:27;100327.63;;;6.92;95.93
33697;BME280;20031;43.416;23.232;2023-04-10T03:56:52;100328.47;;;6.93;95.99
33697;BME280;20031;43.416;23.232;2023-04-10T03:59:18;100328.34;;;6.94;96.24
33697;BME280;20031;43.416;23.232;2023-04-10T04:01:43;100332.69;;;6.94;96.12
33697;BME280;20031;43.416;23.232;2023-04-10T04:04:08;100334.59;;;6.92;95.64
33697;BME280;20031;43.416;23.232;2023-04-10T04:06:34;100335.41;;;6.92;95.67
33697;BME280;20031;43.416;23.232;2023-04-10T04:08:59;100344.28;;;6.90;95.60
33697;BME280;20031;43.416;23.232;2023-04-10T04:11:25;100338.13;;;6.91;96.26
33697;BME280;20031;43.416;23.232;2023-04-10T04:13:52;100347.41;;;6.93;96.11
33697;BME280;20031;43.416;23.232;2023-04-10T04:16:17;100342.34;;;6.92;95.73
33697;BME280;20031;43.416;23.232;2023-04-10T04:18:42;100337.06;;;6.93;95.88
33697;BME280;20031;43.416;23.232;2023-04-10T04:21:08;100343.63;;;6.97;96.25
33697;BME280;20031;43.416;23.232;2023-04-10T04:23:33;100344.16;;;7.01;96.21
33697;BME280;20031;43.416;23.232;2023-04-10T04:25:59;100343.63;;;7.07;96.10
33697;BME280;20031;43.416;23.232;2023-04-10T04:28:25;100345.03;;;7.10;96.23
33697;BME280;20031;43.416;23.232;2023-04-10T04:30:50;100345.88;;;7.11;96.38
33697;BME280;20031;43.416;23.232;2023-04-10T04:33:16;100349.81;;;7.15;95.71
33697;BME280;20031;43.416;23.232;2023-04-10T04:35:41;100342.75;;;7.17;95.92
33697;BME280;20031;43.416;23.232;2023-04-10T04:38:06;100341.78;;;7.18;95.94
33697;BME280;20031;43.416;23.232;2023-04-10T04:40:32;100341.56;;;7.21;96.07
33697;BME280;20031;43.416;23.232;2023-04-10T04:42:57;100347.94;;;7.26;96.03
33697;BME280;20031;43.416;23.232;2023-04-10T04:45:23;100356.03;;;7.33;96.16
33697;BME280;20031;43.416;23.232;2023-04-10T04:47:49;100355.78;;;7.36;96.04
33697;BME280;20031;43.416;23.232;2023-04-10T04:50:15;100353.63;;;7.41;95.68
33697;BME280;20031;43.416;23.232;2023-04-10T04:52:40;100354.84;;;7.46;96.16
33697;BME280;20031;43.416;23.232;2023-04-10T04:55:06;100356.09;;;7.52;96.01
33697;BME280;20031;43.416;23.232;2023-04-10T04:57:32;100364.84;;;7.51;96.00
33697;BME280;20031;43.416;23.232;2023-04-10T04:59:58;100363.19;;;7.50;95.97
33697;BME280;20031;43.416;23.232;2023-04-10T05:02:23;100373.56;;;7.59;95.53
33697;BME280;20031;43.416;23.232;2023-04-10T05:04:48;100372.22;;;7.64;95.86
33697;BME280;20031;43.416;23.232;2023-04-10T05:07:14;100380.97;;;7.63;95.56
33697;BME280;20031;43.416;23.232;2023-04-10T05:09:39;100372.94;;;7.66;95.74
33697;BME280;20031;43.416;23.232;2023-04-10T05:12:05;100375.53;;;7.66;95.01
33697;BME280;20031;43.416;23.232;2023-04-10T05:14:31;100379.34;;;7.72;95.56
33697;BME280;20031;43.416;23.232;2023-04-10T05:16:56;100377.44;;;7.74;95.53
33697;BME280;20031;43.416;23.232;2023-04-10T05:19:21;100381.16;;;7.81;95.36
33697;BME280;20031;43.416;23.232;2023-04-10T05:21:47;100380.59;;;7.87;95.16
33697;BME280;20031;43.416;23.232;2023-04-10T05:24:12;100376.81;;;7.91;95.21
33697;BME280;20031;43.416;23.232;2023-04-10T05:26:38;100385.53;;;7.90;95.09
33697;BME280;20031;43.416;23.232;2023-04-10T05:29:05;100387.56;;;7.96;95.22
33697;BME280;20031;43.416;23.232;2023-04-10T05:31:30;100385.16;;;8.04;95.02
33697;BME280;20031;43.416;23.232;2023-04-10T05:33:55;100389.91;;;8.08;95.32
33697;BME280;20031;43.416;23.232;2023-04-10T05:36:21;100380.53;;;8.16;95.59
33697;BME280;20031;43.416;23.232;2023-04-10T05:38:46;100385.63;;;8.27;95.23
33697;BME280;20031;43.416;23.232;2023-04-10T05:41:12;100386.84;;;8.33;94.99
33697;BME280;20031;43.416;23.232;2023-04-10T05:43:37;100389.44;;;8.42;95.09
33697;BME280;20031;43.416;23.232;2023-04-10T05:46:03;100389.81;;;8.57;95.22
33697;BME280;20031;43.416;23.232;2023-04-10T05:48:28;100392.00;;;8.70;95.11
33697;BME280;20031;43.416;23.232;2023-04-10T05:50:54;100387.63;;;8.80;95.15
33697;BME280;20031;43.416;23.232;2023-04-10T05:53:19;100388.16;;;8.93;94.68
33697;BME280;20031;43.416;23.232;2023-04-10T05:55:49;100396.72;;;9.03;94.30
33697;BME280;20031;43.416;23.232;2023-04-10T05:58:15;100394.56;;;9.08;94.13
33697;BME280;20031;43.416;23.232;2023-04-10T06:00:41;100394.22;;;9.20;94.49
33697;BME280;20031;43.416;23.232;2023-04-10T06:03:06;100386.41;;;9.30;93.80
33697;BME280;20031;43.416;23.232;2023-04-10T06:05:32;100386.91;;;9.43;93.72
33697;BME280;20031;43.416;23.232;2023-04-10T06:07:57;100385.88;;;9.53;93.21
33697;BME280;20031;43.416;23.232;2023-04-10T06:10:22;100382.72;;;9.59;93.21
33697;BME280;20031;43.416;23.232;2023-04-10T06:12:48;100383.25;;;9.63;92.38
33697;BME280;20031;43.416;23.232;2023-04-10T06:15:13;100387.88;;;9.68;92.30
33697;BME280;20031;43.416;23.232;2023-04-10T06:17:42;100384.31;;;9.69;91.96
33697;BME280;20031;43.416;23.232;2023-04-10T06:20:09;100388.06;;;9.84;91.56
33697;BME280;20031;43.416;23.232;2023-04-10T06:22:34;100380.50;;;9.91;91.28
33697;BME280;20031;43.416;23.232;2023-04-10T06:25:00;100387.59;;;9.98;90.70
33697;BME280;20031;43.416;23.232;2023-04-10T06:27:26;100389.31;;;10.07;89.41
33697;BME280;20031;43.416;23.232;2023-04-10T06:29:52;100385.38;;;10.20;89.00
33697;BME280;20031;43.416;23.232;2023-04-10T06:32:17;100387.38;;;10.44;88.80
33697;BME280;20031;43.416;23.232;2023-04-10T06:34:43;100385.00;;;10.68;87.91
33697;BME280;20031;43.416;23.232;2023-04-10T06:37:08;100382.41;;;10.93;87.06
33697;BME280;20031;43.416;23.232;2023-04-10T06:39:34;100380.63;;;11.18;85.68
33697;BME280;20031;43.416;23.232;2023-04-10T06:42:00;100382.16;;;11.29;84.25
33697;BME280;20031;43.416;23.232;2023-04-10T06:44:26;100384.56;;;11.48;83.46
33697;BME280;20031;43.416;23.232;2023-04-10T06:46:52;100387.94;;;11.40;81.13
33697;BME280;20031;43.416;23.232;2023-04-10T06:49:17;100388.91;;;11.14;80.17
33697;BME280;20031;43.416;23.232;2023-04-10T06:51:44;100393.38;;;10.96;79.63
33697;BME280;20031;43.416;23.232;2023-04-10T06:54:10;100400.16;;;10.89;79.56
33697;BME280;20031;43.416;23.232;2023-04-10T06:56:35;100395.81;;;10.98;80.10
33697;BME280;20031;43.416;23.232;2023-04-10T06:59:01;100400.03;;;11.16;79.55
33697;BME280;20031;43.416;23.232;2023-04-10T07:01:27;100396.72;;;11.39;79.08
33697;BME280;20031;43.416;23.232;2023-04-10T07:03:52;100398.22;;;11.75;78.86
33697;BME280;20031;43.416;23.232;2023-04-10T07:06:18;100397.34;;;12.00;77.86
33697;BME280;20031;43.416;23.232;2023-04-10T07:08:43;100398.38;;;12.23;76.72
33697;BME280;20031;43.416;23.232;2023-04-10T07:11:09;100402.16;;;12.44;75.82
33697;BME280;20031;43.416;23.232;2023-04-10T07:13:34;100402.31;;;12.42;73.95
33697;BME280;20031;43.416;23.232;2023-04-10T07:16:03;100392.81;;;12.25;73.65
33697;BME280;20031;43.416;23.232;2023-04-10T07:18:28;100404.09;;;12.34;74.13
33697;BME280;20031;43.416;23.232;2023-04-10T07:20:54;100403.06;;;12.19;72.60
33697;BME280;20031;43.416;23.232;2023-04-10T07:23:19;100400.78;;;12.16;72.85
33697;BME280;20031;43.416;23.232;2023-04-10T07:25:45;100408.28;;;12.11;73.27
33697;BME280;20031;43.416;23.232;2023-04-10T07:28:10;100405.03;;;12.17;73.29
33697;BME280;20031;43.416;23.232;2023-04-10T07:30:36;100406.84;;;12.24;72.62
33697;BME280;20031;43.416;23.232;2023-04-10T07:33:01;100413.91;;;12.40;72.67
33697;BME280;20031;43.416;23.232;2023-04-10T07:35:27;100407.69;;;12.49;72.27
33697;BME280;20031;43.416;23.232;2023-04-10T07:37:52;100403.97;;;12.59;72.93
33697;BME280;20031;43.416;23.232;2023-04-10T07:40:18;100411.19;;;12.89;71.91
33697;BME280;20031;43.416;23.232;2023-04-10T07:42:44;100403.50;;;13.03;71.39
33697;BME280;20031;43.416;23.232;2023-04-10T07:45:10;100404.28;;;13.04;70.80
33697;BME280;20031;43.416;23.232;2023-04-10T07:47:36;100409.03;;;12.84;70.05
33697;BME280;20031;43.416;23.232;2023-04-10T07:50:02;100407.25;;;12.69;70.00
33697;BME280;20031;43.416;23.232;2023-04-10T07:52:28;100411.16;;;12.49;70.35
33697;BME280;20031;43.416;23.232;2023-04-10T07:54:53;100404.78;;;12.60;70.62
33697;BME280;20031;43.416;23.232;2023-04-10T07:57:19;100401.84;;;12.71;70.19
33697;BME280;20031;43.416;23.232;2023-04-10T07:59:44;100410.03;;;12.83;69.63
33697;BME280;20031;43.416;23.232;2023-04-10T08:02:10;100413.13;;;13.03;69.88
33697;BME280;20031;43.416;23.232;2023-04-10T08:04:35;100403.94;;;13.23;69.24
33697;BME280;20031;43.416;23.232;2023-04-10T08:07:01;100401.06;;;13.56;68.71
33697;BME280;20031;43.416;23.232;2023-04-10T08:09:26;100402.38;;;13.60;66.97
33697;BME280;20031;43.416;23.232;2023-04-10T08:11:52;100402.75;;;13.41;67.01
33697;BME280;20031;43.416;23.232;2023-04-10T08:14:17;100398.13;;;13.51;68.33
33697;BME280;20031;43.416;23.232;2023-04-10T08:16:43;100399.88;;;13.66;67.90
33697;BME280;20031;43.416;23.232;2023-04-10T08:19:08;100403.97;;;13.69;66.95
33697;BME280;20031;43.416;23.232;2023-04-10T08:21:34;100406.50;;;13.84;67.24
33697;BME280;20031;43.416;23.232;2023-04-10T08:24:01;100394.97;;;14.01;66.66
33697;BME280;20031;43.416;23.232;2023-04-10T08:26:27;100404.66;;;14.31;65.57
33697;BME280;20031;43.416;23.232;2023-04-10T08:28:55;100394.78;;;14.63;63.84
33697;BME280;20031;43.416;23.232;2023-04-10T08:31:21;100398.88;;;14.80;63.92
33697;BME280;20031;43.416;23.232;2023-04-10T08:33:48;100390.97;;;15.02;63.28
33697;BME280;20031;43.416;23.232;2023-04-10T08:36:14;100392.03;;;14.93;62.34
33697;BME280;20031;43.416;23.232;2023-04-10T08:38:43;100397.78;;;14.75;62.71
33697;BME280;20031;43.416;23.232;2023-04-10T08:41:10;100390.56;;;14.77;62.74
33697;BME280;20031;43.416;23.232;2023-04-10T08:43:36;100392.19;;;14.78;62.13
33697;BME280;20031;43.416;23.232;2023-04-10T08:46:02;100391.00;;;14.80;61.40
33697;BME280;20031;43.416;23.232;2023-04-10T08:48:34;100387.97;;;14.91;61.72
33697;BME280;20031;43.416;23.232;2023-04-10T08:51:03;100384.13;;;15.01;61.12
33697;BME280;20031;43.416;23.232;2023-04-10T08:53:30;100384.66;;;15.11;61.21
33697;BME280;20031;43.416;23.232;2023-04-10T08:55:56;100388.31;;;15.25;60.72
33697;BME280;20031;43.416;23.232;2023-04-10T08:58:26;100381.03;;;15.12;59.70
33697;BME280;20031;43.416;23.232;2023-04-10T09:00:52;100377.66;;;15.04;60.79
33697;BME280;20031;43.416;23.232;2023-04-10T09:03:18;100384.22;;;14.85;60.36
33697;BME280;20031;43.416;23.232;2023-04-10T09:05:43;100385.09;;;15.00;60.71
33697;BME280;20031;43.416;23.232;2023-04-10T09:08:09;100383.28;;;15.01;60.43
33697;BME280;20031;43.416;23.232;2023-04-10T09:10:37;100379.72;;;15.31;60.82
33697;BME280;20031;43.416;23.232;2023-04-10T09:13:03;100369.31;;;15.66;60.14
33697;BME280;20031;43.416;23.232;2023-04-10T09:15:29;100364.38;;;15.91;59.62
33697;BME280;20031;43.416;23.232;2023-04-10T09:17:56;100366.44;;;15.96;58.18
33697;BME280;20031;43.416;23.232;2023-04-10T09:20:24;100360.59;;;16.15;58.31
33697;BME280;20031;43.416;23.232;2023-04-10T09:22:50;100362.97;;;16.10;56.75
33697;BME280;20031;43.416;23.232;2023-04-10T09:28:03;100354.28;;;16.09;56.81
33697;BME280;20031;43.416;23.232;2023-04-10T09:30:40;100357.78;;;16.16;56.83
33697;BME280;20031;43.416;23.232;2023-04-10T09:33:25;100351.81;;;16.43;56.76
33697;BME280;20031;43.416;23.232;2023-04-10T09:35:58;100344.97;;;16.48;55.61
33697;BME280;20031;43.416;23.232;2023-04-10T09:38:28;100350.31;;;16.34;54.99
33697;BME280;20031;43.416;23.232;2023-04-10T09:41:05;100337.72;;;16.30;55.59
33697;BME280;20031;43.416;23.232;2023-04-10T09:43:31;100338.31;;;16.46;55.16
33697;BME280;20031;43.416;23.232;2023-04-10T09:45:57;100338.28;;;16.25;54.06
33697;BME280;20031;43.416;23.232;2023-04-10T09:48:24;100339.41;;;16.37;53.70
33697;BME280;20031;43.416;23.232;2023-04-10T09:50:50;100345.66;;;16.57;52.80
33697;BME280;20031;43.416;23.232;2023-04-10T09:53:18;100340.06;;;16.39;53.77
33697;BME280;20031;43.416;23.232;2023-04-10T09:55:48;100331.75;;;16.21;53.83
33697;BME280;20031;43.416;23.232;2023-04-10T09:58:14;100326.97;;;16.10;54.33
33697;BME280;20031;43.416;23.232;2023-04-10T10:00:44;100326.13;;;16.03;54.03
33697;BME280;20031;43.416;23.232;2023-04-10T10:03:12;100324.84;;;16.20;53.08
33697;BME280;20031;43.416;23.232;2023-04-10T10:05:39;100320.44;;;16.41;52.47
33697;BME280;20031;43.416;23.232;2023-04-10T10:08:06;100313.88;;;16.52;52.64
33697;BME280;20031;43.416;23.232;2023-04-10T10:10:32;100318.44;;;16.91;53.01
33697;BME280;20031;43.416;23.232;2023-04-10T10:13:01;100317.59;;;16.91;51.86
33697;BME280;20031;43.416;23.232;2023-04-10T10:15:42;100313.22;;;16.71;51.50
33697;BME280;20031;43.416;23.232;2023-04-10T10:20:46;100308.06;;;16.63;50.96
33697;BME280;20031;43.416;23.232;2023-04-10T10:23:12;100303.84;;;16.89;50.92
33697;BME280;20031;43.416;23.232;2023-04-10T10:25:40;100295.44;;;17.06;49.08
33697;BME280;20031;43.416;23.232;2023-04-10T10:28:11;100294.66;;;17.46;48.13
33697;BME280;20031;43.416;23.232;2023-04-10T10:30:37;100287.88;;;17.71;47.97
33697;BME280;20031;43.416;23.232;2023-04-10T10:33:05;100285.91;;;17.98;47.29
33697;BME280;20031;43.416;23.232;2023-04-10T10:35:34;100278.91;;;17.59;45.54
33697;BME280;20031;43.416;23.232;2023-04-10T10:38:04;100279.94;;;16.84;46.82
33697;BME280;20031;43.416;23.232;2023-04-10T10:43:36;100280.94;;;16.14;49.63
33697;BME280;20031;43.416;23.232;2023-04-10T10:46:13;100270.03;;;15.76;49.96
33697;BME280;20031;43.416;23.232;2023-04-10T10:48:38;100273.31;;;15.63;51.46
33697;BME280;20031;43.416;23.232;2023-04-10T10:51:04;100269.91;;;15.63;51.61
33697;BME280;20031;43.416;23.232;2023-04-10T10:53:35;100256.69;;;15.56;50.46
33697;BME280;20031;43.416;23.232;2023-04-10T10:58:50;100257.66;;;15.90;51.74
33697;BME280;20031;43.416;23.232;2023-04-10T11:01:16;100255.47;;;16.63;50.10
33697;BME280;20031;43.416;23.232;2023-04-10T11:03:43;100244.78;;;17.32;48.17
33697;BME280;20031;43.416;23.232;2023-04-10T11:06:19;100249.31;;;17.63;46.21
33697;BME280;20031;43.416;23.232;2023-04-10T11:08:48;100248.09;;;17.46;47.02
33697;BME280;20031;43.416;23.232;2023-04-10T11:11:18;100237.78;;;17.11;47.13
33697;BME280;20031;43.416;23.232;2023-04-10T11:16:42;100231.81;;;16.35;46.79
33697;BME280;20031;43.416;23.232;2023-04-10T11:19:09;100244.22;;;16.00;47.68
33697;BME280;20031;43.416;23.232;2023-04-10T11:22:00;100231.13;;;16.27;48.10
33697;BME280;20031;43.416;23.232;2023-04-10T11:24:26;100222.59;;;17.13;47.92
33697;BME280;20031;43.416;23.232;2023-04-10T11:26:52;100216.72;;;17.58;45.97
33697;BME280;20031;43.416;23.232;2023-04-10T11:31:56;100208.66;;;17.98;43.39
33697;BME280;20031;43.416;23.232;2023-04-10T11:34:22;100207.66;;;18.12;42.61
33697;BME280;20031;43.416;23.232;2023-04-10T11:36:47;100205.03;;;18.44;41.28
33697;BME280;20031;43.416;23.232;2023-04-10T11:39:14;100197.34;;;18.36;41.82
33697;BME280;20031;43.416;23.232;2023-04-10T11:41:44;100195.69;;;18.09;41.29
33697;BME280;20031;43.416;23.232;2023-04-10T11:44:36;100196.88;;;17.75;41.84
33697;BME280;20031;43.416;23.232;2023-04-10T11:47:03;100192.59;;;17.61;42.15
33697;BME280;20031;43.416;23.232;2023-04-10T11:49:32;100195.41;;;17.46;42.04
33697;BME280;20031;43.416;23.232;2023-04-10T11:51:58;100192.59;;;17.61;42.40
33697;BME280;20031;43.416;23.232;2023-04-10T11:54:26;100188.22;;;18.19;42.49
33697;BME280;20031;43.416;23.232;2023-04-10T11:57:06;100179.47;;;18.44;42.57
33697;BME280;20031;43.416;23.232;2023-04-10T11:59:36;100184.28;;;18.80;41.77
33697;BME280;20031;43.416;23.232;2023-04-10T12:02:08;100172.25;;;18.84;41.51
33697;BME280;20031;43.416;23.232;2023-04-10T12:04:34;100172.53;;;18.63;40.75
33697;BME280;20031;43.416;23.232;2023-04-10T12:07:00;100169.03;;;18.82;41.30
33697;BME280;20031;43.416;23.232;2023-04-10T12:09:26;100163.59;;;19.27;42.21
33697;BME280;20031;43.416;23.232;2023-04-10T12:11:58;100161.69;;;19.71;41.39
33697;BME280;20031;43.416;23.232;2023-04-10T12:16:57;100160.44;;;19.05;40.11
33697;BME280;20031;43.416;23.232;2023-04-10T12:19:24;100152.47;;;18.49;41.09
33697;BME280;20031;43.416;23.232;2023-04-10T12:21:50;100149.25;;;17.95;41.92
33697;BME280;20031;43.416;23.232;2023-04-10T12:24:47;100149.06;;;17.65;42.15
33697;BME280;20031;43.416;23.232;2023-04-10T12:27:20;100149.00;;;17.45;42.20
33697;BME280;20031;43.416;23.232;2023-04-10T12:29:49;100144.97;;;17.82;42.37
33697;BME280;20031;43.416;23.232;2023-04-10T12:32:14;100130.00;;;17.95;41.69
33697;BME280;20031;43.416;23.232;2023-04-10T12:34:40;100131.22;;;17.92;42.46
33697;BME280;20031;43.416;23.232;2023-04-10T12:37:06;100120.25;;;18.28;42.34
33697;BME280;20031;43.416;23.232;2023-04-10T12:39:34;100114.38;;;18.89;41.79
33697;BME280;20031;43.416;23.232;2023-04-10T12:44:52;100115.66;;;19.54;38.37
33697;BME280;20031;43.416;23.232;2023-04-10T12:47:18;100114.13;;;19.40;37.84
33697;BME280;20031;43.416;23.232;2023-04-10T12:52:35;100098.78;;;19.24;39.65
33697;BME280;20031;43.416;23.232;2023-04-10T12:57:35;100093.38;;;18.63;39.51
33697;BME280;20031;43.416;23.232;2023-04-10T13:00:00;100090.00;;;18.37;40.20
33697;BME280;20031;43.416;23.232;2023-04-10T13:02:27;100096.72;;;18.20;40.80
33697;BME280;20031;43.416;23.232;2023-04-10T13:04:54;100093.09;;;18.14;40.35
33697;BME280;20031;43.416;23.232;2023-04-10T13:07:19;100088.22;;;17.98;40.09
33697;BME280;20031;43.416;23.232;2023-04-10T13:09:45;100079.72;;;17.96;40.92
33697;BME280;20031;43.416;23.232;2023-04-10T13:12:11;100087.84;;;17.95;40.84
33697;BME280;20031;43.416;23.232;2023-04-10T13:14:37;100076.06;;;17.91;40.35
33697;BME280;20031;43.416;23.232;2023-04-10T13:17:02;100074.47;;;17.84;40.74
33697;BME280;20031;43.416;23.232;2023-04-10T13:19:27;100070.81;;;17.65;40.79
33697;BME280;20031;43.416;23.232;2023-04-10T13:21:53;100070.81;;;17.59;41.32
33697;BME280;20031;43.416;23.232;2023-04-10T13:24:18;100080.16;;;17.55;41.53